GLO1412 SBGR-SBBR
Flight info
| Callsign | GLO1412 |
|---|---|
| Flight time | N/A |
| Altitude | 36000 |
| Route | ISMOB UZ26 AZOIC |
| Aircraft | B38M/M-DFGHIJ4J7KLORWXY/LB1 |
Departure
| Time | 2026-05-01 10:09 |
|---|---|
| Airport | São Paulo/Guarulhos–Governor André Franco Montoro International Airport (SBGR) |
Arrival
| Time | N/A |
|---|---|
| Airport | Presidente Juscelino Kubitschek International Airport (SBBR) |
| Time | Latitude | Longitude | Altitude | Speed | Heading |
|---|---|---|---|---|---|
| 2026-05-01 09:38 | -23.42817 | -46.48547 | 2464 ft | 0 kts | 275° |
| 2026-05-01 09:42 | -23.42817 | -46.48546 | 2464 ft | 0 kts | 276° |
| 2026-05-01 09:58 | -23.42817 | -46.48544 | 2464 ft | 2 kts | 276° |
| 2026-05-01 09:58 | -23.42818 | -46.48516 | 2464 ft | 4 kts | 264° |
| 2026-05-01 09:58 | -23.42812 | -46.48488 | 2464 ft | 4 kts | 236° |
| 2026-05-01 09:59 | -23.42795 | -46.48473 | 2466 ft | 2 kts | 182° |
| 2026-05-01 09:59 | -23.42794 | -46.48473 | 2464 ft | 2 kts | 181° |
| 2026-05-01 10:03 | -23.42796 | -46.48473 | 2467 ft | 1 kts | 181° |
| 2026-05-01 10:04 | -23.42813 | -46.48473 | 2469 ft | 3 kts | 181° |
| 2026-05-01 10:04 | -23.42842 | -46.48474 | 2467 ft | 5 kts | 181° |
| 2026-05-01 10:04 | -23.42884 | -46.48472 | 2464 ft | 7 kts | 170° |
| 2026-05-01 10:04 | -23.42935 | -46.48456 | 2464 ft | 9 kts | 166° |
| 2026-05-01 10:05 | -23.43000 | -46.48450 | 2464 ft | 10 kts | 177° |
| 2026-05-01 10:05 | -23.43073 | -46.48438 | 2464 ft | 12 kts | 165° |
| 2026-05-01 10:05 | -23.43157 | -46.48413 | 2471 ft | 13 kts | 163° |
| 2026-05-01 10:05 | -23.43247 | -46.48383 | 2466 ft | 13 kts | 163° |
| 2026-05-01 10:06 | -23.43287 | -46.48370 | 2464 ft | 0 kts | 163° |
| 2026-05-01 10:07 | -23.43288 | -46.48370 | 2464 ft | 1 kts | 163° |
| 2026-05-01 10:07 | -23.43339 | -46.48354 | 2465 ft | 15 kts | 163° |
| 2026-05-01 10:08 | -23.43297 | -46.47846 | 2467 ft | 84 kts | 74° |
| 2026-05-01 10:08 | -23.43081 | -46.47045 | 2467 ft | 137 kts | 73° |
| 2026-05-01 10:08 | -23.42773 | -46.45894 | 2475 ft | 177 kts | 75° |
| 2026-05-01 10:09 | -23.42423 | -46.44559 | 2927 ft | 185 kts | 73° |
| 2026-05-01 10:09 | -23.42025 | -46.43192 | 3565 ft | 193 kts | 73° |
| 2026-05-01 10:09 | -23.41604 | -46.41793 | 4242 ft | 197 kts | 72° |
| 2026-05-01 10:09 | -23.41144 | -46.40301 | 4694 ft | 220 kts | 71° |
| 2026-05-01 10:10 | -23.40658 | -46.38641 | 5099 ft | 244 kts | 72° |
| 2026-05-01 10:10 | -23.40127 | -46.36812 | 5595 ft | 262 kts | 70° |
| 2026-05-01 10:10 | -23.38269 | -46.33292 | 7031 ft | 275 kts | 56° |
| 2026-05-01 10:11 | -23.37238 | -46.31516 | 7773 ft | 280 kts | 56° |
| 2026-05-01 10:11 | -23.36199 | -46.29724 | 8495 ft | 285 kts | 57° |
| 2026-05-01 10:11 | -23.35127 | -46.27874 | 9243 ft | 291 kts | 57° |
| 2026-05-01 10:11 | -23.34044 | -46.26006 | 9982 ft | 296 kts | 57° |
| 2026-05-01 10:12 | -23.32929 | -46.24084 | 10598 ft | 306 kts | 57° |
| 2026-05-01 10:12 | -23.32168 | -46.22772 | 10822 ft | 318 kts | 57° |
| 2026-05-01 10:12 | -23.29279 | -46.17793 | 11972 ft | 344 kts | 57° |
| 2026-05-01 10:13 | -23.27992 | -46.15576 | 12670 ft | 349 kts | 57° |
| 2026-05-01 10:13 | -23.26682 | -46.13320 | 13400 ft | 353 kts | 57° |
| 2026-05-01 10:13 | -23.25376 | -46.11072 | 14086 ft | 358 kts | 57° |
| 2026-05-01 10:14 | -23.22674 | -46.06439 | 15371 ft | 366 kts | 54° |
| 2026-05-01 10:14 | -23.20929 | -46.04420 | 15996 ft | 367 kts | 34° |
| 2026-05-01 10:14 | -23.18667 | -46.03119 | 16626 ft | 368 kts | 18° |
| 2026-05-01 10:14 | -23.16226 | -46.02406 | 17210 ft | 369 kts | 3° |
| 2026-05-01 10:15 | -23.13678 | -46.02540 | 17838 ft | 367 kts | 345° |
| 2026-05-01 10:15 | -23.11319 | -46.03524 | 18427 ft | 366 kts | 327° |
| 2026-05-01 10:15 | -23.09331 | -46.05245 | 18925 ft | 366 kts | 311° |
| 2026-05-01 10:15 | -23.07602 | -46.07312 | 19426 ft | 369 kts | 310° |
| 2026-05-01 10:16 | -23.05906 | -46.09413 | 19961 ft | 371 kts | 309° |
| 2026-05-01 10:16 | -23.04235 | -46.11530 | 20477 ft | 374 kts | 309° |
| 2026-05-01 10:16 | -23.00865 | -46.15869 | 21482 ft | 380 kts | 308° |
| 2026-05-01 10:17 | -22.99158 | -46.18083 | 21983 ft | 382 kts | 308° |
| 2026-05-01 10:17 | -22.95736 | -46.22528 | 22980 ft | 388 kts | 308° |
| 2026-05-01 10:17 | -22.93993 | -46.24792 | 23450 ft | 391 kts | 308° |
| 2026-05-01 10:18 | -22.90493 | -46.29353 | 24295 ft | 395 kts | 306° |
| 2026-05-01 10:18 | -22.89131 | -46.31926 | 24722 ft | 393 kts | 293° |
| 2026-05-01 10:18 | -22.87944 | -46.34581 | 25111 ft | 396 kts | 295° |
| 2026-05-01 10:19 | -22.86726 | -46.37280 | 25545 ft | 398 kts | 295° |
| 2026-05-01 10:19 | -22.85526 | -46.39959 | 25962 ft | 399 kts | 294° |
| 2026-05-01 10:19 | -22.84307 | -46.42688 | 26386 ft | 401 kts | 294° |
| 2026-05-01 10:20 | -22.81880 | -46.48131 | 27212 ft | 404 kts | 294° |
| 2026-05-01 10:20 | -22.80646 | -46.50894 | 27591 ft | 407 kts | 294° |
| 2026-05-01 10:20 | -22.79407 | -46.53668 | 27959 ft | 409 kts | 294° |
| 2026-05-01 10:20 | -22.78177 | -46.56422 | 28349 ft | 411 kts | 294° |
| 2026-05-01 10:21 | -22.76926 | -46.59220 | 28750 ft | 413 kts | 294° |
| 2026-05-01 10:21 | -22.74411 | -46.64841 | 29526 ft | 416 kts | 294° |
| 2026-05-01 10:21 | -22.73142 | -46.67674 | 29897 ft | 418 kts | 294° |
| 2026-05-01 10:22 | -22.70608 | -46.73329 | 30566 ft | 421 kts | 294° |
| 2026-05-01 10:22 | -22.68035 | -46.79064 | 31152 ft | 425 kts | 294° |
| 2026-05-01 10:23 | -22.66732 | -46.81958 | 31388 ft | 429 kts | 294° |
| 2026-05-01 10:23 | -22.64099 | -46.87795 | 31956 ft | 433 kts | 295° |
| 2026-05-01 10:23 | -22.62469 | -46.90562 | 32229 ft | 438 kts | 309° |
| 2026-05-01 10:24 | -22.57452 | -46.94264 | 32774 ft | 454 kts | 337° |
| 2026-05-01 10:24 | -22.51403 | -46.96347 | 33460 ft | 455 kts | 339° |
| 2026-05-01 10:25 | -22.45361 | -46.98333 | 34214 ft | 454 kts | 339° |
| 2026-05-01 10:25 | -22.39335 | -47.00287 | 34869 ft | 453 kts | 339° |
| 2026-05-01 10:26 | -22.36319 | -47.01261 | 35190 ft | 452 kts | 339° |
| 2026-05-01 10:26 | -22.33304 | -47.02234 | 35508 ft | 451 kts | 339° |
| 2026-05-01 10:26 | -22.27315 | -47.04165 | 36088 ft | 450 kts | 340° |
| 2026-05-01 10:27 | -22.22326 | -47.05772 | 36145 ft | 443 kts | 339° |
| 2026-05-01 10:28 | -22.13542 | -47.08598 | 36161 ft | 438 kts | 339° |
| 2026-05-01 10:28 | -22.04799 | -47.11407 | 36157 ft | 438 kts | 340° |
| 2026-05-01 10:29 | -21.96021 | -47.14224 | 36165 ft | 439 kts | 340° |
| 2026-05-01 10:30 | -21.84296 | -47.17981 | 36166 ft | 440 kts | 340° |
| 2026-05-01 10:31 | -21.72271 | -47.20566 | 36130 ft | 444 kts | 349° |
| 2026-05-01 10:32 | -21.63052 | -47.21787 | 36139 ft | 445 kts | 349° |
| 2026-05-01 10:33 | -21.50804 | -47.23397 | 36144 ft | 445 kts | 349° |
| 2026-05-01 10:34 | -21.41565 | -47.24608 | 36144 ft | 445 kts | 349° |
| 2026-05-01 10:34 | -21.35467 | -47.25462 | 36142 ft | 444 kts | 347° |
| 2026-05-01 10:35 | -21.26281 | -47.27010 | 36139 ft | 444 kts | 347° |
| 2026-05-01 10:35 | -21.20201 | -47.28023 | 36144 ft | 444 kts | 347° |
| 2026-05-01 10:36 | -21.11051 | -47.29543 | 36137 ft | 445 kts | 348° |
| 2026-05-01 10:37 | -21.04915 | -47.30561 | 36140 ft | 445 kts | 348° |
| 2026-05-01 10:37 | -20.95745 | -47.32081 | 36131 ft | 445 kts | 348° |
| 2026-05-01 10:38 | -20.89629 | -47.33094 | 36139 ft | 445 kts | 348° |
| 2026-05-01 10:38 | -20.83523 | -47.34104 | 36144 ft | 445 kts | 348° |
| 2026-05-01 10:39 | -20.77414 | -47.35113 | 36137 ft | 445 kts | 348° |
| 2026-05-01 10:39 | -20.71256 | -47.36130 | 36135 ft | 446 kts | 348° |
| 2026-05-01 10:40 | -20.65150 | -47.37138 | 36139 ft | 445 kts | 348° |
| 2026-05-01 10:40 | -20.59048 | -47.38138 | 36140 ft | 445 kts | 349° |
| 2026-05-01 10:41 | -20.52912 | -47.39061 | 36143 ft | 445 kts | 349° |
| 2026-05-01 10:42 | -20.43707 | -47.40449 | 36132 ft | 445 kts | 349° |
| 2026-05-01 10:42 | -20.37580 | -47.41373 | 36134 ft | 445 kts | 349° |
| 2026-05-01 10:43 | -20.31443 | -47.42298 | 36126 ft | 445 kts | 349° |
| 2026-05-01 10:43 | -20.25306 | -47.43223 | 36124 ft | 445 kts | 349° |
| 2026-05-01 10:44 | -20.19179 | -47.44145 | 36129 ft | 445 kts | 349° |
| 2026-05-01 10:44 | -20.13074 | -47.45063 | 36125 ft | 445 kts | 349° |
| 2026-05-01 10:45 | -20.06951 | -47.45983 | 36128 ft | 445 kts | 349° |
| 2026-05-01 10:45 | -20.00820 | -47.46904 | 36132 ft | 444 kts | 349° |
| 2026-05-01 10:46 | -19.94709 | -47.47821 | 36143 ft | 445 kts | 349° |
| 2026-05-01 10:46 | -19.88601 | -47.48736 | 36132 ft | 445 kts | 349° |
| 2026-05-01 10:47 | -19.82440 | -47.49659 | 36122 ft | 445 kts | 349° |
| 2026-05-01 10:47 | -19.76328 | -47.50574 | 36138 ft | 445 kts | 350° |
| 2026-05-01 10:48 | -19.70177 | -47.51474 | 36138 ft | 446 kts | 350° |
| 2026-05-01 10:48 | -19.64044 | -47.52372 | 36139 ft | 446 kts | 350° |
| 2026-05-01 10:49 | -19.58014 | -47.53254 | 36142 ft | 446 kts | 350° |
| 2026-05-01 10:49 | -19.51894 | -47.54149 | 36144 ft | 446 kts | 350° |
| 2026-05-01 10:50 | -19.45739 | -47.55048 | 36141 ft | 446 kts | 350° |
| 2026-05-01 10:50 | -19.39584 | -47.55946 | 36137 ft | 446 kts | 350° |
| 2026-05-01 10:51 | -19.33452 | -47.56840 | 36138 ft | 446 kts | 350° |
| 2026-05-01 10:51 | -19.27283 | -47.57740 | 36137 ft | 446 kts | 350° |
| 2026-05-01 10:52 | -19.21152 | -47.58633 | 36133 ft | 446 kts | 350° |
| 2026-05-01 10:52 | -19.15002 | -47.59527 | 36141 ft | 446 kts | 350° |
| 2026-05-01 10:53 | -19.08944 | -47.60408 | 36129 ft | 446 kts | 350° |
| 2026-05-01 10:53 | -19.02770 | -47.61296 | 36132 ft | 446 kts | 351° |
| 2026-05-01 10:54 | -18.96648 | -47.62148 | 36131 ft | 446 kts | 351° |
| 2026-05-01 10:54 | -18.90489 | -47.63006 | 36127 ft | 446 kts | 351° |
| 2026-05-01 10:55 | -18.84350 | -47.63860 | 36125 ft | 446 kts | 351° |
| 2026-05-01 10:55 | -18.78186 | -47.64718 | 36128 ft | 446 kts | 351° |
| 2026-05-01 10:56 | -18.72046 | -47.65571 | 36123 ft | 447 kts | 351° |
| 2026-05-01 10:56 | -18.65875 | -47.66429 | 36123 ft | 447 kts | 351° |
| 2026-05-01 10:57 | -18.59734 | -47.67297 | 36124 ft | 447 kts | 351° |
| 2026-05-01 10:57 | -18.53601 | -47.68196 | 36118 ft | 446 kts | 351° |
| 2026-05-01 10:58 | -18.47401 | -47.69103 | 36116 ft | 448 kts | 351° |
| 2026-05-01 10:58 | -18.41270 | -47.69999 | 36114 ft | 448 kts | 351° |
| 2026-05-01 10:59 | -18.35114 | -47.70897 | 36113 ft | 447 kts | 351° |
| 2026-05-01 10:59 | -18.28977 | -47.72004 | 36111 ft | 445 kts | 344° |
| 2026-05-01 11:00 | -18.22949 | -47.73530 | 36111 ft | 447 kts | 346° |
| 2026-05-01 11:00 | -18.16912 | -47.75001 | 36116 ft | 447 kts | 346° |
| 2026-05-01 11:01 | -18.10839 | -47.76471 | 36113 ft | 447 kts | 346° |
| 2026-05-01 11:01 | -18.04787 | -47.77933 | 36110 ft | 447 kts | 346° |
| 2026-05-01 11:02 | -17.98741 | -47.79391 | 36110 ft | 448 kts | 346° |
| 2026-05-01 11:02 | -17.92669 | -47.80855 | 36114 ft | 447 kts | 346° |
| 2026-05-01 11:03 | -17.86621 | -47.82312 | 36112 ft | 446 kts | 346° |
| 2026-05-01 11:03 | -17.80592 | -47.83763 | 36110 ft | 446 kts | 346° |
| 2026-05-01 11:04 | -17.74521 | -47.85224 | 36112 ft | 447 kts | 346° |
| 2026-05-01 11:04 | -17.68454 | -47.86682 | 36111 ft | 447 kts | 346° |
| 2026-05-01 11:05 | -17.62431 | -47.88129 | 36115 ft | 447 kts | 346° |
| 2026-05-01 11:05 | -17.56356 | -47.89587 | 36110 ft | 447 kts | 346° |
| 2026-05-01 11:06 | -17.50283 | -47.91044 | 36117 ft | 447 kts | 346° |
| 2026-05-01 11:06 | -17.44289 | -47.92481 | 35548 ft | 442 kts | 346° |
| 2026-05-01 11:07 | -17.38160 | -47.93949 | 33725 ft | 457 kts | 346° |
| 2026-05-01 11:07 | -17.35078 | -47.94688 | 32932 ft | 459 kts | 346° |
| 2026-05-01 11:07 | -17.31949 | -47.95436 | 32286 ft | 458 kts | 347° |
| 2026-05-01 11:07 | -17.28847 | -47.96178 | 31759 ft | 454 kts | 347° |
| 2026-05-01 11:08 | -17.25767 | -47.96915 | 31224 ft | 452 kts | 347° |
| 2026-05-01 11:08 | -17.22749 | -47.97636 | 30643 ft | 450 kts | 348° |
| 2026-05-01 11:08 | -17.16639 | -47.99097 | 29352 ft | 449 kts | 348° |
| 2026-05-01 11:09 | -17.13594 | -47.99824 | 28765 ft | 446 kts | 348° |
| 2026-05-01 11:09 | -17.10578 | -48.00544 | 28224 ft | 443 kts | 348° |
| 2026-05-01 11:09 | -17.07584 | -48.01259 | 27668 ft | 440 kts | 348° |
| 2026-05-01 11:10 | -17.01633 | -48.02679 | 26555 ft | 436 kts | 348° |
| 2026-05-01 11:10 | -16.98673 | -48.03385 | 25998 ft | 435 kts | 348° |
| 2026-05-01 11:10 | -16.95779 | -48.04074 | 25467 ft | 433 kts | 348° |
| 2026-05-01 11:10 | -16.92846 | -48.04773 | 24925 ft | 432 kts | 349° |
| 2026-05-01 11:11 | -16.89907 | -48.05474 | 24378 ft | 431 kts | 349° |
| 2026-05-01 11:11 | -16.86987 | -48.06169 | 23838 ft | 430 kts | 349° |
| 2026-05-01 11:11 | -16.84067 | -48.06865 | 23230 ft | 429 kts | 349° |
| 2026-05-01 11:11 | -16.81164 | -48.07556 | 22663 ft | 426 kts | 349° |
| 2026-05-01 11:12 | -16.78275 | -48.08242 | 22138 ft | 423 kts | 349° |
| 2026-05-01 11:12 | -16.75429 | -48.08887 | 21366 ft | 426 kts | 349° |
| 2026-05-01 11:12 | -16.72522 | -48.09545 | 20727 ft | 427 kts | 349° |
| 2026-05-01 11:12 | -16.69618 | -48.10202 | 20102 ft | 426 kts | 349° |
| 2026-05-01 11:13 | -16.66709 | -48.10861 | 19416 ft | 428 kts | 349° |
| 2026-05-01 11:13 | -16.63789 | -48.11523 | 18719 ft | 430 kts | 349° |
| 2026-05-01 11:13 | -16.60862 | -48.12186 | 17962 ft | 431 kts | 349° |
| 2026-05-01 11:13 | -16.57960 | -48.12843 | 17229 ft | 431 kts | 349° |
| 2026-05-01 11:14 | -16.55025 | -48.13507 | 16528 ft | 428 kts | 349° |
| 2026-05-01 11:14 | -16.52164 | -48.14155 | 15847 ft | 414 kts | 350° |
| 2026-05-01 11:14 | -16.49384 | -48.14784 | 15196 ft | 402 kts | 350° |
| 2026-05-01 11:14 | -16.47597 | -48.15188 | 14796 ft | 395 kts | 350° |
| 2026-05-01 11:15 | -16.44936 | -48.15790 | 14152 ft | 386 kts | 350° |
| 2026-05-01 11:15 | -16.42334 | -48.16378 | 13482 ft | 378 kts | 350° |
| 2026-05-01 11:15 | -16.39794 | -48.16953 | 12833 ft | 369 kts | 351° |
| 2026-05-01 11:15 | -16.37327 | -48.17510 | 12233 ft | 360 kts | 351° |
| 2026-05-01 11:16 | -16.34906 | -48.18058 | 11661 ft | 352 kts | 351° |
| 2026-05-01 11:16 | -16.32528 | -48.18594 | 11104 ft | 345 kts | 352° |
| 2026-05-01 11:16 | -16.30205 | -48.19119 | 10537 ft | 339 kts | 352° |
| 2026-05-01 11:16 | -16.27924 | -48.19633 | 10032 ft | 331 kts | 352° |
| 2026-05-01 11:17 | -16.25720 | -48.20127 | 9714 ft | 317 kts | 352° |
| 2026-05-01 11:17 | -16.23616 | -48.20600 | 9466 ft | 303 kts | 352° |
| 2026-05-01 11:17 | -16.21608 | -48.21051 | 9229 ft | 288 kts | 353° |
| 2026-05-01 11:17 | -16.19682 | -48.21483 | 8994 ft | 278 kts | 353° |
| 2026-05-01 11:18 | -16.17834 | -48.21897 | 8763 ft | 265 kts | 353° |
| 2026-05-01 11:18 | -16.16075 | -48.22279 | 8578 ft | 250 kts | 357° |
| 2026-05-01 11:18 | -16.14446 | -48.22166 | 8317 ft | 229 kts | 19° |
| 2026-05-01 11:18 | -16.12919 | -48.21793 | 8114 ft | 218 kts | 18° |
| 2026-05-01 11:19 | -16.11477 | -48.21444 | 7913 ft | 206 kts | 19° |
| 2026-05-01 11:19 | -16.10129 | -48.21110 | 7764 ft | 198 kts | 19° |
| 2026-05-01 11:19 | -16.08798 | -48.20776 | 7581 ft | 197 kts | 19° |
| 2026-05-01 11:19 | -16.07455 | -48.20436 | 7470 ft | 198 kts | 19° |
| 2026-05-01 11:20 | -16.06113 | -48.20095 | 7307 ft | 198 kts | 20° |
| 2026-05-01 11:20 | -16.04780 | -48.19755 | 7150 ft | 197 kts | 19° |
| 2026-05-01 11:20 | -16.03460 | -48.19417 | 6987 ft | 195 kts | 20° |
| 2026-05-01 11:20 | -16.02139 | -48.19079 | 6843 ft | 195 kts | 20° |
| 2026-05-01 11:21 | -16.00825 | -48.18742 | 6670 ft | 196 kts | 20° |
| 2026-05-01 11:21 | -15.99513 | -48.18411 | 6465 ft | 195 kts | 17° |
| 2026-05-01 11:21 | -15.98141 | -48.18360 | 6262 ft | 201 kts | 4° |
| 2026-05-01 11:21 | -15.96747 | -48.18456 | 6092 ft | 200 kts | 4° |
| 2026-05-01 11:22 | -15.95379 | -48.18551 | 5912 ft | 190 kts | 5° |
| 2026-05-01 11:22 | -15.94141 | -48.18490 | 5660 ft | 169 kts | 28° |
| 2026-05-01 11:22 | -15.93263 | -48.17793 | 5494 ft | 154 kts | 58° |
| 2026-05-01 11:22 | -15.92637 | -48.16862 | 5610 ft | 158 kts | 58° |
| 2026-05-01 11:23 | -15.92435 | -48.16555 | 5614 ft | 159 kts | 58° |